Time;durP1;ratioP1;P1;durP2;ratioP2;P2;SDS_P1;SDS_P2;PMS_P1;PMS_P2;Temp;Humidity;BMP_temperature;BMP_pressure;BME280_temperature;BME280_humidity;BME280_pressure;Samples;Min_cycle;Max_cycle;Signal;HPM_P1;HPM_P2
2021/08/15 00:02:22;;;;;;;8.37;4.87;;;16.10;99.90;;;;;;4436333;32;20243;-60
2021/08/15 00:04:49;;;;;;;7.47;4.73;;;16.10;99.90;;;;;;4439903;32;20185;-63
2021/08/15 00:07:18;;;;;;;8.73;4.53;;;16.20;99.90;;;;;;4446295;32;20218;-61
2021/08/15 00:09:45;;;;;;;7.73;4.60;;;16.30;99.90;;;;;;4444728;32;20210;-60
2021/08/15 00:12:12;;;;;;;7.50;4.30;;;16.40;99.90;;;;;;4442169;32;20194;-63
2021/08/15 00:14:39;;;;;;;6.60;4.53;;;16.50;99.90;;;;;;4445197;32;20612;-61
2021/08/15 00:17:06;;;;;;;7.57;4.90;;;16.50;99.90;;;;;;4441152;32;20218;-62
2021/08/15 00:19:32;;;;;;;7.77;5.03;;;16.40;99.90;;;;;;4442846;32;20183;-62
2021/08/15 00:21:59;;;;;;;7.10;4.67;;;16.40;99.90;;;;;;4448449;32;20222;-61
2021/08/15 00:24:27;;;;;;;8.50;4.37;;;16.30;99.90;;;;;;4446508;32;20629;-62
2021/08/15 00:26:54;;;;;;;8.07;4.27;;;16.20;99.90;;;;;;4440655;32;20202;-61
2021/08/15 00:29:21;;;;;;;6.60;4.57;;;16.20;99.90;;;;;;4436968;32;20210;-61
2021/08/15 00:31:48;;;;;;;9.70;4.90;;;16.20;99.90;;;;;;4443196;32;20230;-60
2021/08/15 00:34:15;;;;;;;7.90;4.23;;;16.20;99.90;;;;;;4437976;32;20491;-61
2021/08/15 00:36:41;;;;;;;5.53;3.87;;;16.20;99.90;;;;;;4438319;32;20202;-59
2021/08/15 00:39:08;;;;;;;9.00;4.83;;;16.30;99.90;;;;;;4445834;32;20159;-60
2021/08/15 00:41:37;;;;;;;8.33;4.30;;;16.30;99.90;;;;;;4445710;32;20162;-61
2021/08/15 00:44:06;;;;;;;5.60;4.63;;;16.30;99.90;;;;;;4445200;32;20173;-61
2021/08/15 00:46:33;;;;;;;7.20;4.50;;;16.20;99.90;;;;;;4437611;32;20175;-60
2021/08/15 00:48:59;;;;;;;6.60;4.70;;;16.20;99.90;;;;;;4441925;32;20163;-61
2021/08/15 00:51:26;;;;;;;7.93;5.37;;;16.20;99.90;;;;;;4446336;32;20207;-62
2021/08/15 00:53:57;;;;;;;6.67;4.73;;;16.10;99.90;;;;;;4440852;32;20151;-61
2021/08/15 00:56:54;;;;;;;6.57;4.83;;;16.00;99.90;;;;;;4447769;32;20185;-62
2021/08/15 00:59:22;;;;;;;7.03;4.43;;;16.00;99.90;;;;;;4442970;32;20147;-61
2021/08/15 01:01:51;;;;;;;9.27;5.13;;;16.10;99.90;;;;;;4446765;32;20171;-61
2021/08/15 01:04:18;;;;;;;7.80;5.40;;;16.10;99.90;;;;;;4440455;32;20182;-61
2021/08/15 01:06:45;;;;;;;8.57;5.50;;;16.10;99.90;;;;;;4441637;32;20159;-61
2021/08/15 01:09:12;;;;;;;7.80;5.03;;;16.10;99.90;;;;;;4448115;32;20151;-62
2021/08/15 01:11:39;;;;;;;7.70;4.67;;;16.00;99.90;;;;;;4443754;32;20158;-62
2021/08/15 01:14:09;;;;;;;11.17;5.87;;;16.00;99.90;;;;;;4449078;32;20526;-61
2021/08/15 01:16:36;;;;;;;6.30;5.10;;;16.00;99.90;;;;;;4450072;32;20166;-62
2021/08/15 01:19:03;;;;;;;7.50;4.60;;;16.00;99.90;;;;;;4441329;32;20171;-62
2021/08/15 01:21:30;;;;;;;9.90;5.47;;;16.00;99.90;;;;;;4448755;32;20230;-62
2021/08/15 01:23:59;;;;;;;9.77;5.90;;;16.10;99.90;;;;;;4442146;32;20154;-62
2021/08/15 01:26:26;;;;;;;7.43;5.17;;;16.00;99.90;;;;;;4443133;32;20601;-60
2021/08/15 01:28:54;;;;;;;8.43;5.57;;;16.10;99.90;;;;;;4441456;32;20212;-60
2021/08/15 01:31:23;;;;;;;7.83;5.40;;;16.10;99.90;;;;;;4438528;32;20210;-62
2021/08/15 01:33:50;;;;;;;8.10;6.07;;;16.10;99.90;;;;;;4442066;32;20202;-60
2021/08/15 01:36:21;;;;;;;9.00;5.50;;;16.10;99.90;;;;;;4444857;32;20234;-61
2021/08/15 01:38:50;;;;;;;9.10;5.37;;;16.10;99.90;;;;;;4442159;32;20230;-62
2021/08/15 01:41:18;;;;;;;5.87;4.93;;;16.10;99.90;;;;;;4443746;32;20218;-60
2021/08/15 01:43:50;;;;;;;8.30;5.30;;;16.20;99.90;;;;;;4441729;32;20162;-61
2021/08/15 01:46:19;;;;;;;10.53;5.40;;;16.20;99.90;;;;;;4435802;32;20237;-61
2021/08/15 01:48:46;;;;;;;9.80;5.30;;;16.20;99.90;;;;;;4441501;32;20241;-62
2021/08/15 01:51:14;;;;;;;10.27;5.27;;;16.20;99.90;;;;;;4438452;32;20159;-61
2021/08/15 01:53:41;;;;;;;8.83;5.37;;;16.20;99.90;;;;;;4443814;32;20162;-61
2021/08/15 01:56:08;;;;;;;7.83;5.93;;;16.20;99.90;;;;;;4446939;32;20214;-62
2021/08/15 01:58:35;;;;;;;7.90;5.30;;;16.20;99.90;;;;;;4442601;32;20228;-61
2021/08/15 02:01:03;;;;;;;8.03;5.30;;;16.20;99.90;;;;;;4444407;32;20249;-61
2021/08/15 02:03:31;;;;;;;7.20;5.03;;;16.20;99.90;;;;;;4441153;32;20239;-63
2021/08/15 02:05:58;;;;;;;8.20;5.33;;;16.30;99.90;;;;;;4445226;32;20234;-61
2021/08/15 02:08:25;;;;;;;9.57;5.30;;;16.30;99.90;;;;;;4449855;32;20224;-61
2021/08/15 02:10:52;;;;;;;7.43;5.10;;;16.20;99.90;;;;;;4442894;32;20526;-61
2021/08/15 02:13:19;;;;;;;10.10;6.17;;;16.20;99.90;;;;;;4447862;32;20231;-62
2021/08/15 02:15:46;;;;;;;11.73;5.83;;;16.20;99.90;;;;;;4440821;32;20654;-62
2021/08/15 02:18:13;;;;;;;8.67;5.37;;;16.20;99.90;;;;;;4443543;32;20254;-61
2021/08/15 02:20:41;;;;;;;10.37;5.07;;;16.10;99.90;;;;;;4437377;32;20167;-61
2021/08/15 02:23:08;;;;;;;9.37;5.93;;;16.10;99.90;;;;;;4446815;32;20178;-61
2021/08/15 02:25:36;;;;;;;8.00;6.00;;;16.10;99.90;;;;;;4440612;32;20232;-62
2021/08/15 02:28:03;;;;;;;9.93;6.37;;;16.10;99.90;;;;;;4439699;32;20274;-61
2021/08/15 02:30:30;;;;;;;7.80;5.50;;;16.00;99.90;;;;;;4442675;32;20151;-61
2021/08/15 02:32:57;;;;;;;7.83;5.33;;;16.00;99.90;;;;;;4441445;32;20170;-60
2021/08/15 02:35:25;;;;;;;10.90;5.87;;;16.00;99.90;;;;;;4444062;32;20234;-62
2021/08/15 02:37:54;;;;;;;8.17;5.10;;;15.90;99.90;;;;;;4447911;32;20209;-63
2021/08/15 02:40:22;;;;;;;9.10;5.70;;;15.90;99.90;;;;;;4443222;32;20237;-61
2021/08/15 02:42:51;;;;;;;9.20;6.23;;;15.90;99.90;;;;;;4442096;32;20178;-60
2021/08/15 02:45:20;;;;;;;7.73;5.77;;;15.80;99.90;;;;;;4437800;32;20239;-60
2021/08/15 02:47:47;;;;;;;8.17;6.00;;;15.80;99.90;;;;;;4438539;32;20182;-60
2021/08/15 02:50:15;;;;;;;11.07;6.30;;;15.80;99.90;;;;;;4444352;32;20194;-62
2021/08/15 02:52:41;;;;;;;9.20;5.83;;;15.80;99.90;;;;;;4435613;32;20601;-62
2021/08/15 02:55:13;;;;;;;11.93;6.57;;;15.80;99.90;;;;;;4438790;32;20171;-64
2021/08/15 02:57:40;;;;;;;12.87;6.33;;;15.70;99.90;;;;;;4434569;32;20151;-59
2021/08/15 03:00:09;;;;;;;8.03;5.77;;;15.70;99.90;;;;;;4444398;32;20158;-60
2021/08/15 03:02:36;;;;;;;8.23;5.80;;;15.70;99.90;;;;;;4439112;32;20218;-59
2021/08/15 03:05:03;;;;;;;12.13;5.80;;;15.70;99.90;;;;;;4438475;32;20222;-60
2021/08/15 03:07:30;;;;;;;9.10;5.80;;;15.70;99.90;;;;;;4436628;32;20233;-61
2021/08/15 03:09:56;;;;;;;8.47;6.23;;;15.60;99.90;;;;;;4447342;32;20159;-63
2021/08/15 03:12:24;;;;;;;9.37;6.33;;;15.60;99.90;;;;;;4445343;32;20537;-61
2021/08/15 03:14:51;;;;;;;8.07;5.87;;;15.60;99.90;;;;;;4439653;32;20163;-61
2021/08/15 03:17:18;;;;;;;12.33;6.87;;;15.60;99.90;;;;;;4444994;32;20155;-61
2021/08/15 03:19:45;;;;;;;10.53;6.10;;;15.60;99.90;;;;;;4447059;32;20214;-61
2021/08/15 03:22:12;;;;;;;7.47;5.50;;;15.60;99.90;;;;;;4446104;32;20533;-60
2021/08/15 03:24:39;;;;;;;8.53;5.70;;;15.60;99.90;;;;;;4444020;32;20222;-60
2021/08/15 03:27:06;;;;;;;8.73;5.90;;;15.50;99.90;;;;;;4436112;32;20194;-60
2021/08/15 03:29:34;;;;;;;9.50;5.80;;;15.50;99.90;;;;;;4437358;32;20680;-60
2021/08/15 03:32:01;;;;;;;8.83;6.00;;;15.50;99.90;;;;;;4436317;32;20210;-61
2021/08/15 03:34:30;;;;;;;9.43;5.90;;;15.40;99.90;;;;;;4441366;32;20175;-61
2021/08/15 03:36:58;;;;;;;9.40;5.77;;;15.40;99.90;;;;;;4448109;32;20165;-61
2021/08/15 03:39:29;;;;;;;10.03;6.23;;;15.40;99.90;;;;;;4447072;32;20494;-61
2021/08/15 03:41:59;;;;;;;10.67;6.10;;;15.50;99.90;;;;;;4449545;32;20154;-61
2021/08/15 03:44:27;;;;;;;11.10;6.00;;;15.50;99.90;;;;;;4442093;32;20150;-62
2021/08/15 03:46:55;;;;;;;10.27;6.47;;;15.50;99.90;;;;;;4450271;32;20637;-62
2021/08/15 03:49:24;;;;;;;10.17;6.00;;;15.60;99.90;;;;;;4440228;32;20193;-61
2021/08/15 03:51:51;;;;;;;12.03;6.10;;;15.50;99.90;;;;;;4440252;32;20186;-62
2021/08/15 03:54:20;;;;;;;9.73;6.60;;;15.50;99.90;;;;;;4441534;32;20602;-63
2021/08/15 03:56:47;;;;;;;10.10;6.73;;;15.50;99.90;;;;;;4440141;32;20151;-63
2021/08/15 03:59:14;;;;;;;13.23;6.83;;;15.50;99.90;;;;;;4452146;32;20155;-61
2021/08/15 04:01:41;;;;;;;12.80;6.70;;;15.60;99.90;;;;;;4445607;32;20204;-61
2021/08/15 04:04:10;;;;;;;11.60;7.17;;;15.60;99.90;;;;;;4442348;32;20522;-61
2021/08/15 04:06:37;;;;;;;9.03;6.13;;;15.50;99.90;;;;;;4438557;32;20235;-61
2021/08/15 04:09:04;;;;;;;12.47;6.50;;;15.60;99.90;;;;;;4441868;32;20223;-62
2021/08/15 04:11:31;;;;;;;10.47;6.80;;;15.60;99.90;;;;;;4450299;32;20277;-62
2021/08/15 04:13:58;;;;;;;13.07;6.27;;;15.60;99.90;;;;;;4442443;32;20625;-62
2021/08/15 04:16:25;;;;;;;12.50;6.67;;;15.60;99.90;;;;;;4445834;32;20171;-61
2021/08/15 04:18:51;;;;;;;10.70;6.13;;;15.60;99.90;;;;;;4440174;32;20230;-62
2021/08/15 04:21:19;;;;;;;11.27;6.13;;;15.70;99.90;;;;;;4452348;32;20493;-61
2021/08/15 04:23:46;;;;;;;8.50;5.90;;;15.70;99.90;;;;;;4445837;32;20510;-61
2021/08/15 04:26:13;;;;;;;9.83;5.93;;;15.70;99.90;;;;;;4444452;32;20170;-62
2021/08/15 04:28:40;;;;;;;10.67;6.17;;;15.70;99.90;;;;;;4445062;32;20242;-62
2021/08/15 04:31:06;;;;;;;13.50;6.40;;;15.70;99.90;;;;;;4444912;32;20222;-61
2021/08/15 04:33:33;;;;;;;10.17;5.40;;;15.70;99.90;;;;;;4447166;32;20258;-61
2021/08/15 04:36:00;;;;;;;13.27;6.67;;;15.70;99.90;;;;;;4443855;32;20188;-61
2021/08/15 04:38:28;;;;;;;10.23;7.00;;;15.70;99.90;;;;;;4450219;32;20266;-62
2021/08/15 04:40:55;;;;;;;9.23;6.43;;;15.80;99.90;;;;;;4438066;32;20177;-61
2021/08/15 04:43:22;;;;;;;11.10;7.27;;;15.80;99.90;;;;;;4438520;32;20166;-61
2021/08/15 04:45:49;;;;;;;12.03;7.33;;;15.80;99.90;;;;;;4438782;32;20203;-62
2021/08/15 04:48:16;;;;;;;10.30;7.23;;;15.80;99.90;;;;;;4437314;32;20174;-61
2021/08/15 04:50:44;;;;;;;13.03;6.57;;;15.80;99.90;;;;;;4441299;32;20234;-61
2021/08/15 04:53:11;;;;;;;12.80;7.50;;;15.80;99.90;;;;;;4436755;32;20265;-62
2021/08/15 04:55:40;;;;;;;12.80;7.67;;;15.80;99.90;;;;;;4437318;32;20221;-62
2021/08/15 04:58:07;;;;;;;13.53;7.40;;;15.80;99.90;;;;;;4439283;32;20206;-62
2021/08/15 05:00:34;;;;;;;12.33;7.43;;;15.80;99.90;;;;;;4438653;32;20190;-63
2021/08/15 05:03:01;;;;;;;12.57;8.70;;;15.90;99.90;;;;;;4434743;32;20245;-63
2021/08/15 05:05:28;;;;;;;15.53;7.67;;;15.90;99.90;;;;;;4436698;32;20189;-62
2021/08/15 05:07:55;;;;;;;12.53;7.83;;;15.90;99.90;;;;;;4435228;32;20211;-62
2021/08/15 05:16:59;;;;;;;11.63;7.70;;;15.90;99.90;;;;;;4439029;32;20497;-62
2021/08/15 05:19:30;;;;;;;12.27;7.67;;;16.00;99.90;;;;;;4437337;32;20150;-60
2021/08/15 05:22:06;;;;;;;9.67;7.00;;;16.10;99.90;;;;;;4437980;32;20169;-59
2021/08/15 05:24:36;;;;;;;12.83;7.37;;;16.20;99.90;;;;;;4449335;32;20169;-61
2021/08/15 05:27:03;;;;;;;10.13;6.80;;;16.30;99.90;;;;;;4452482;32;20151;-60
2021/08/15 05:29:29;;;;;;;9.60;7.70;;;16.40;99.90;;;;;;4440720;32;20150;-61
2021/08/15 05:32:03;;;;;;;12.13;7.07;;;16.40;99.90;;;;;;4439703;32;20177;-61
2021/08/15 05:34:36;;;;;;;11.77;7.53;;;16.50;99.90;;;;;;4437809;32;20583;-62
2021/08/15 05:37:07;;;;;;;10.23;7.03;;;16.60;99.90;;;;;;4438248;32;20175;-61
2021/08/15 05:39:37;;;;;;;14.93;8.00;;;16.60;99.90;;;;;;4440174;32;20189;-62
2021/08/15 05:42:07;;;;;;;10.80;7.70;;;16.70;99.90;;;;;;4437237;32;20193;-61
2021/08/15 05:44:35;;;;;;;12.10;7.30;;;16.80;99.90;;;;;;4440228;32;20227;-61
2021/08/15 05:47:08;;;;;;;14.17;8.67;;;16.90;99.90;;;;;;4444735;32;20221;-62
2021/08/15 05:49:35;;;;;;;12.97;7.67;;;17.00;99.90;;;;;;4442753;32;20587;-61
2021/08/15 05:52:06;;;;;;;13.50;7.57;;;17.10;99.90;;;;;;4445679;32;20724;-61
2021/08/15 05:54:33;;;;;;;14.03;7.70;;;17.20;99.90;;;;;;4442132;32;20151;-62
2021/08/15 05:56:59;;;;;;;14.67;8.57;;;17.30;99.90;;;;;;4444416;32;20155;-61
2021/08/15 05:59:26;;;;;;;15.33;8.10;;;17.30;99.90;;;;;;4443997;32;20177;-62
2021/08/15 06:01:55;;;;;;;14.57;8.57;;;17.40;99.90;;;;;;4441024;32;20213;-61
2021/08/15 06:04:23;;;;;;;13.70;7.87;;;17.40;99.90;;;;;;4441622;32;20163;-63
2021/08/15 06:06:50;;;;;;;15.10;7.83;;;17.60;99.90;;;;;;4440790;32;20174;-62
2021/08/15 06:09:17;;;;;;;12.17;8.10;;;17.70;99.90;;;;;;4448149;32;20174;-62
2021/08/15 06:11:46;;;;;;;11.50;7.50;;;17.70;99.90;;;;;;4449292;32;20163;-61
2021/08/15 06:14:16;;;;;;;11.73;7.73;;;17.80;99.90;;;;;;4449972;32;20166;-61
2021/08/15 06:16:43;;;;;;;12.80;7.73;;;17.90;99.90;;;;;;4447895;32;20256;-62
2021/08/15 06:19:10;;;;;;;11.57;8.53;;;18.10;99.90;;;;;;4449060;32;20166;-62
2021/08/15 06:21:45;;;;;;;12.13;8.57;;;18.20;99.90;;;;;;4445687;32;20169;-62
2021/08/15 06:24:12;;;;;;;14.33;8.17;;;18.30;99.90;;;;;;4448413;32;20158;-60
2021/08/15 06:26:41;;;;;;;19.90;8.80;;;18.50;99.90;;;;;;4445888;32;20170;-61
2021/08/15 06:29:08;;;;;;;9.07;7.60;;;18.50;99.90;;;;;;4446488;32;20183;-61
2021/08/15 06:31:44;;;;;;;15.87;8.43;;;18.50;99.90;;;;;;4446392;32;20177;-60
2021/08/15 06:34:14;;;;;;;12.40;9.03;;;18.50;99.90;;;;;;4448870;32;20232;-61
2021/08/15 06:36:45;;;;;;;17.93;8.23;;;18.60;99.90;;;;;;4446970;32;20652;-61
2021/08/15 06:39:14;;;;;;;14.37;8.73;;;18.70;99.90;;;;;;4447087;32;20694;-60
2021/08/15 06:41:41;;;;;;;12.20;8.67;;;18.80;99.90;;;;;;4447608;32;20176;-62
2021/08/15 06:44:10;;;;;;;12.60;8.57;;;19.00;99.90;;;;;;4445062;32;20183;-62
2021/08/15 06:46:37;;;;;;;10.17;7.90;;;19.20;99.90;;;;;;4446083;32;20151;-63
2021/08/15 06:49:04;;;;;;;12.97;8.33;;;19.30;99.90;;;;;;4449336;32;20173;-63
2021/08/15 06:51:31;;;;;;;13.37;8.70;;;19.50;99.90;;;;;;4445624;32;20162;-62
2021/08/15 06:54:01;;;;;;;13.80;8.50;;;19.70;99.90;;;;;;4445757;32;20154;-61
2021/08/15 06:56:28;;;;;;;14.50;8.47;;;19.70;99.90;;;;;;4449347;32;20197;-64
2021/08/15 06:58:57;;;;;;;12.43;8.93;;;19.90;99.90;;;;;;4450777;32;20159;-64
2021/08/15 07:01:25;;;;;;;14.23;8.77;;;19.90;99.90;;;;;;4447653;32;20193;-65
2021/08/15 07:03:56;;;;;;;11.80;7.83;;;19.70;99.90;;;;;;4446957;32;20260;-61
2021/08/15 07:06:25;;;;;;;12.70;8.30;;;19.60;99.90;;;;;;4447281;32;20202;-62
2021/08/15 07:08:52;;;;;;;16.07;9.13;;;19.70;99.90;;;;;;4448570;32;20180;-62
2021/08/15 07:11:21;;;;;;;11.13;7.73;;;20.20;99.90;;;;;;4448317;32;20182;-62
2021/08/15 07:13:48;;;;;;;11.43;7.90;;;20.70;99.90;;;;;;4451176;32;20162;-63
2021/08/15 07:16:15;;;;;;;13.47;7.63;;;20.90;99.90;;;;;;4449060;32;20175;-64
2021/08/15 07:18:42;;;;;;;16.03;8.00;;;21.10;99.90;;;;;;4450260;32;20155;-62
2021/08/15 07:21:08;;;;;;;13.00;8.23;;;21.10;99.90;;;;;;4448401;32;20163;-62
2021/08/15 07:23:35;;;;;;;9.93;7.87;;;21.00;99.90;;;;;;4450586;32;20500;-62
2021/08/15 07:26:05;;;;;;;14.20;7.33;;;20.80;99.90;;;;;;4448911;32;20583;-66
2021/08/15 07:28:33;;;;;;;13.00;7.27;;;22.10;99.90;;;;;;4449783;32;20158;-62
2021/08/15 07:31:00;;;;;;;13.27;6.20;;;23.80;99.90;;;;;;4448412;32;20201;-63
2021/08/15 07:33:30;;;;;;;12.53;7.43;;;23.10;99.90;;;;;;4450212;32;20158;-63
2021/08/15 07:36:04;;;;;;;13.13;7.77;;;22.40;99.90;;;;;;4445633;32;20174;-64
2021/08/15 07:38:34;;;;;;;16.13;8.27;;;22.20;99.90;;;;;;4431864;32;20241;-64
2021/08/15 07:41:01;;;;;;;12.13;7.23;;;21.80;99.90;;;;;;4445596;32;20143;-64
2021/08/15 07:43:31;;;;;;;11.60;7.50;;;21.70;99.90;;;;;;4450567;32;20227;-63
2021/08/15 07:45:59;;;;;;;11.80;7.57;;;21.50;99.90;;;;;;4444924;32;20159;-64
2021/08/15 07:48:26;;;;;;;14.87;7.13;;;21.50;99.90;;;;;;4443147;32;20163;-63
2021/08/15 07:50:53;;;;;;;9.63;6.17;;;22.60;99.90;;;;;;4444025;32;20515;-63
2021/08/15 07:53:23;;;;;;;8.85;5.57;;;25.20;99.90;;;;;;4447781;32;20151;-62
2021/08/15 07:55:51;;;;;;;10.25;5.30;;;31.80;96.60;;;;;;4445692;32;20158;-64
2021/08/15 07:58:18;;;;;;;7.62;4.55;;;38.80;76.50;;;;;;4452066;32;20167;-65
2021/08/15 08:00:45;;;;;;;9.13;5.80;;;43.40;57.80;;;;;;4444041;32;20221;-62
2021/08/15 08:03:14;;;;;;;6.55;4.20;;;46.80;48.90;;;;;;4442672;32;20159;-62
2021/08/15 08:05:42;;;;;;;11.90;5.95;;;47.20;43.90;;;;;;4445032;32;20175;-63
2021/08/15 08:08:09;;;;;;;8.82;4.87;;;43.00;43.90;;;;;;4444534;32;20606;-63
2021/08/15 08:10:38;;;;;;;8.50;5.05;;;38.40;48.20;;;;;;4444504;32;20173;-65
2021/08/15 08:13:07;;;;;;;11.05;6.12;;;34.80;52.70;;;;;;4443529;32;20194;-64
2021/08/15 08:15:36;;;;;;;9.45;5.47;;;36.20;54.00;;;;;;4444478;32;20221;-64
2021/08/15 08:18:12;;;;;;;9.20;4.70;;;41.40;48.80;;;;;;4439653;32;20151;-61
2021/08/15 08:20:40;;;;;;;8.30;5.07;;;46.00;44.80;;;;;;4440933;32;20190;-64
2021/08/15 08:23:10;;;;;;;7.28;4.30;;;49.10;41.90;;;;;;4443270;32;20163;-63
2021/08/15 08:25:38;;;;;;;5.65;4.45;;;48.70;38.90;;;;;;4442708;32;20561;-63
2021/08/15 08:28:07;;;;;;;11.40;5.60;;;44.90;40.50;;;;;;4442754;32;20629;-64
2021/08/15 08:30:34;;;;;;;8.75;4.97;;;45.50;40.50;;;;;;4438900;32;20240;-63
2021/08/15 08:33:01;;;;;;;7.32;4.97;;;48.50;39.10;;;;;;4437523;32;20147;-64
2021/08/15 08:35:31;;;;;;;10.07;4.78;;;50.40;37.30;;;;;;4442778;32;20159;-62
2021/08/15 08:37:59;;;;;;;6.57;4.20;;;50.70;35.90;;;;;;4442948;32;20159;-62
2021/08/15 08:40:26;;;;;;;8.93;4.43;;;51.20;35.90;;;;;;4439143;32;20159;-64
2021/08/15 08:43:05;;;;;;;6.03;4.47;;;52.20;35.00;;;;;;4446162;32;20258;-64
2021/08/15 08:45:35;;;;;;;6.03;4.25;;;52.80;34.50;;;;;;4437477;32;20143;-63
2021/08/15 08:48:04;;;;;;;7.50;4.40;;;52.90;33.80;;;;;;4442725;32;20159;-62
2021/08/15 08:50:32;;;;;;;7.72;4.57;;;53.10;33.60;;;;;;4438255;32;20159;-63
2021/08/15 08:53:01;;;;;;;6.90;4.60;;;53.30;33.20;;;;;;4438015;32;20147;-64
2021/08/15 08:55:55;;;;;;;6.70;4.22;;;52.00;33.30;;;;;;4439304;32;20175;-63
2021/08/15 08:58:22;;;;;;;8.32;4.18;;;52.10;33.30;;;;;;4375468;32;20603;-63
2021/08/15 09:00:50;;;;;;;6.60;4.47;;;52.30;33.00;;;;;;4374204;32;20287;-65
2021/08/15 09:03:19;;;;;;;9.35;5.00;;;52.30;32.70;;;;;;4375241;32;20535;-63
2021/08/15 09:05:55;;;;;;;8.70;4.53;;;52.30;33.30;;;;;;4371853;32;20149;-62
2021/08/15 09:08:32;;;;;;;10.45;4.75;;;52.60;32.70;;;;;;4374920;32;20164;-65
2021/08/15 09:11:18;;;;;;;7.25;4.03;;;52.90;32.60;;;;;;4372711;32;20504;-64
2021/08/15 09:14:03;;;;;;;6.00;4.25;;;53.10;32.20;;;;;;4375104;32;20272;-62
2021/08/15 09:16:52;;;;;;;9.48;5.03;;;52.60;32.40;;;;;;4374306;32;20182;-63
2021/08/15 09:19:28;;;;;;;8.30;4.80;;;52.80;32.00;;;;;;4343564;33;20601;-67
2021/08/15 09:22:01;;;;;;;6.95;5.00;;;52.60;32.50;;;;;;4342596;33;20261;-66
2021/08/15 09:24:30;;;;;;;7.72;4.90;;;50.90;33.00;;;;;;4345816;33;20172;-65
2021/08/15 09:27:01;;;;;;;8.90;4.35;;;45.70;35.60;;;;;;4343615;33;20157;-66
2021/08/15 09:29:28;;;;;;;8.40;4.97;;;40.80;39.10;;;;;;4347762;33;20694;-64
2021/08/15 09:31:55;;;;;;;8.68;5.05;;;36.80;43.10;;;;;;4346134;32;20212;-65
2021/08/15 09:34:29;;;;;;;7.18;4.70;;;34.10;46.20;;;;;;4359321;32;20615;-65
2021/08/15 09:36:58;;;;;;;9.63;5.45;;;32.10;49.30;;;;;;4407469;32;20253;-64
2021/08/15 09:39:34;;;;;;;5.62;4.20;;;30.60;52.60;;;;;;4407030;32;20208;-64
2021/08/15 09:42:04;;;;;;;8.30;4.75;;;29.60;55.20;;;;;;4406009;32;20163;-64
2021/08/15 09:44:34;;;;;;;9.32;4.90;;;28.90;56.60;;;;;;4405643;32;20202;-65
2021/08/15 09:47:04;;;;;;;10.40;5.03;;;28.40;59.10;;;;;;4411867;32;20189;-64
2021/08/15 09:49:42;;;;;;;10.60;4.93;;;27.90;60.30;;;;;;4406342;32;20618;-63
2021/08/15 09:52:10;;;;;;;8.55;4.90;;;27.60;62.40;;;;;;4408082;32;20234;-63
2021/08/15 09:54:39;;;;;;;11.38;5.55;;;27.40;66.00;;;;;;4408597;32;20228;-64
2021/08/15 09:57:28;;;;;;;11.70;4.97;;;27.30;67.50;;;;;;4433077;32;20220;-64
2021/08/15 09:59:57;;;;;;;11.40;5.10;;;27.40;68.70;;;;;;4441394;32;20634;-65
2021/08/15 10:02:25;;;;;;;10.77;4.87;;;27.50;67.50;;;;;;4439920;32;20218;-65
2021/08/15 10:04:52;;;;;;;7.30;4.62;;;27.50;68.10;;;;;;4438442;32;20178;-64
2021/08/15 10:07:24;;;;;;;7.25;4.65;;;27.50;69.10;;;;;;4439831;32;20193;-64
2021/08/15 10:10:05;;;;;;;8.35;4.10;;;27.70;68.90;;;;;;4437356;32;20158;-64
2021/08/15 10:12:33;;;;;;;10.10;4.35;;;27.90;69.60;;;;;;4441248;32;20210;-65
2021/08/15 10:15:00;;;;;;;8.00;4.78;;;27.80;69.40;;;;;;4445833;32;20154;-65
2021/08/15 10:17:32;;;;;;;9.43;4.53;;;27.50;69.30;;;;;;4447467;32;20211;-67
2021/08/15 10:20:01;;;;;;;16.77;4.90;;;27.00;69.80;;;;;;4440406;32;20605;-65
2021/08/15 10:22:30;;;;;;;12.43;4.28;;;26.70;68.20;;;;;;4442812;32;20155;-66
2021/08/15 10:25:05;;;;;;;7.12;3.75;;;26.30;69.90;;;;;;4440174;32;20167;-67
2021/08/15 10:27:47;;;;;;;9.25;3.97;;;26.30;71.50;;;;;;4438819;32;20218;-66
2021/08/15 10:30:52;;;;;;;6.05;3.60;;;26.20;71.90;;;;;;4440881;32;20210;-66
2021/08/15 10:33:25;;;;;;;10.25;4.18;;;25.90;73.80;;;;;;4441589;32;20204;-66
2021/08/15 10:42:47;;;;;;;9.23;3.47;;;25.60;79.10;;;;;;4444017;32;20175;-67
2021/08/15 10:45:22;;;;;;;8.38;3.60;;;25.90;79.30;;;;;;4438195;32;20241;-67
2021/08/15 10:48:22;;;;;;;6.03;2.85;;;26.10;78.00;;;;;;4441632;32;20178;-67
2021/08/15 10:50:50;;;;;;;7.20;3.60;;;26.00;79.30;;;;;;4437242;32;20237;-68
2021/08/15 10:53:39;;;;;;;8.40;3.92;;;25.90;79.80;;;;;;4438822;32;20223;-68
2021/08/15 10:56:07;;;;;;;7.65;3.47;;;25.80;81.20;;;;;;4437053;32;20192;-68
2021/08/15 10:58:38;;;;;;;6.03;2.92;;;26.00;82.20;;;;;;4435454;32;20199;-66
2021/08/15 11:01:06;;;;;;;8.23;3.37;;;26.30;81.30;;;;;;4435199;32;20179;-66
2021/08/15 11:04:00;;;;;;;8.65;3.83;;;26.50;80.70;;;;;;4361270;32;2379420;-65
2021/08/15 11:06:49;;;;;;;6.28;3.33;;;26.50;82.00;;;;;;4433249;32;20155;-64
2021/08/15 11:09:17;;;;;;;4.50;2.70;;;26.80;82.30;;;;;;4426104;32;20205;-64
2021/08/15 11:12:10;;;;;;;8.80;3.58;;;27.40;81.90;;;;;;4430929;32;20215;-65
2021/08/15 11:14:54;;;;;;;7.80;3.08;;;27.40;79.20;;;;;;4423451;32;20575;-65
2021/08/15 11:17:21;;;;;;;4.15;3.00;;;27.40;80.50;;;;;;4419657;32;20654;-65
2021/08/15 11:19:49;;;;;;;8.70;2.92;;;27.40;80.80;;;;;;4423620;32;20218;-63
2021/08/15 11:22:25;;;;;;;7.00;3.10;;;27.50;81.30;;;;;;4422459;32;20226;-65
2021/08/15 11:25:01;;;;;;;8.57;3.05;;;27.40;81.80;;;;;;4421882;32;20256;-64
2021/08/15 11:27:32;;;;;;;7.60;3.17;;;27.50;83.20;;;;;;4421337;32;20151;-65
2021/08/15 11:30:07;;;;;;;5.50;2.90;;;27.70;84.70;;;;;;4419912;32;20253;-64
2021/08/15 11:32:34;;;;;;;6.30;3.42;;;27.70;84.90;;;;;;4418393;32;20159;-64
2021/08/15 11:35:04;;;;;;;6.40;3.55;;;27.60;84.70;;;;;;4421655;32;20215;-64
2021/08/15 11:37:32;;;;;;;6.80;3.10;;;27.70;85.80;;;;;;4418756;32;20197;-63
2021/08/15 11:40:13;;;;;;;4.30;2.90;;;27.60;85.70;;;;;;4419994;32;20167;-65
2021/08/15 11:42:40;;;;;;;7.37;3.72;;;27.30;86.40;;;;;;4419613;32;20178;-64
2021/08/15 11:45:12;;;;;;;9.38;3.50;;;26.90;86.50;;;;;;4417861;32;20768;-64
2021/08/15 11:47:41;;;;;;;6.78;3.08;;;26.90;87.20;;;;;;4414119;32;20169;-64
2021/08/15 11:50:17;;;;;;;7.32;3.08;;;26.90;87.70;;;;;;4416125;32;20162;-65
2021/08/15 11:52:47;;;;;;;7.20;3.20;;;26.90;88.30;;;;;;4420085;32;20206;-64
2021/08/15 11:55:21;;;;;;;6.65;3.08;;;26.90;89.90;;;;;;4419072;32;20182;-65
2021/08/15 11:57:49;;;;;;;6.62;3.15;;;27.00;89.90;;;;;;4423915;32;20150;-64
2021/08/15 12:00:26;;;;;;;5.05;2.50;;;27.00;90.20;;;;;;4429725;32;20238;-64
2021/08/15 12:03:03;;;;;;;9.85;2.20;;;27.10;90.80;;;;;;4430453;32;20181;-65
2021/08/15 12:05:31;;;;;;;6.20;2.58;;;27.30;90.70;;;;;;4427135;32;20197;-65
2021/08/15 12:08:07;;;;;;;4.22;2.05;;;27.30;90.90;;;;;;4429234;32;20586;-65
2021/08/15 12:10:39;;;;;;;3.08;1.95;;;27.50;91.00;;;;;;4428671;32;20178;-63
2021/08/15 12:13:17;;;;;;;4.75;2.15;;;27.70;89.90;;;;;;4424247;32;20883;-65
2021/08/15 12:15:49;;;;;;;2.78;1.80;;;27.70;90.60;;;;;;4424472;32;20306;-66
2021/08/15 12:18:39;;;;;;;2.50;1.70;;;27.70;90.20;;;;;;4427937;32;20259;-63
2021/08/15 12:21:24;;;;;;;5.18;2.10;;;27.40;90.00;;;;;;4437181;32;20643;-65
2021/08/15 12:24:11;;;;;;;3.42;1.77;;;27.20;91.20;;;;;;4436687;32;20187;-64
2021/08/15 12:26:45;;;;;;;4.12;2.15;;;27.50;91.80;;;;;;4430529;32;20586;-64
2021/08/15 12:29:21;;;;;;;4.85;2.17;;;27.40;90.60;;;;;;4431009;32;20155;-64
2021/08/15 12:32:10;;;;;;;5.75;2.22;;;27.10;90.60;;;;;;4428636;32;20154;-65
2021/08/15 12:34:41;;;;;;;4.80;2.12;;;26.90;91.20;;;;;;4430614;32;20705;-64
2021/08/15 12:37:17;;;;;;;5.12;2.05;;;26.70;91.50;;;;;;4428993;32;20566;-64
2021/08/15 12:39:45;;;;;;;3.58;1.95;;;26.60;91.50;;;;;;4430873;32;20191;-64
2021/08/15 12:42:17;;;;;;;4.40;2.12;;;26.60;91.70;;;;;;4426217;32;20169;-64
2021/08/15 12:44:49;;;;;;;3.47;2.10;;;26.40;91.90;;;;;;4428146;32;20183;-62
2021/08/15 12:47:28;;;;;;;5.85;2.10;;;26.30;92.00;;;;;;4423489;32;20201;-65
2021/08/15 12:50:09;;;;;;;4.32;2.47;;;26.40;92.50;;;;;;4449275;32;20154;-65
2021/08/15 12:52:52;;;;;;;6.47;2.10;;;26.40;92.90;;;;;;4439574;32;20206;-64
2021/08/15 12:55:22;;;;;;;3.08;1.95;;;26.50;92.90;;;;;;4421167;32;20297;-66
2021/08/15 12:57:54;;;;;;;5.28;2.03;;;26.40;93.10;;;;;;4428719;32;20170;-65
2021/08/15 13:00:22;;;;;;;3.17;1.92;;;26.30;92.90;;;;;;4431287;32;20181;-65
2021/08/15 13:02:51;;;;;;;3.85;1.90;;;26.40;93.50;;;;;;4422784;32;20575;-64
2021/08/15 13:05:20;;;;;;;5.72;1.70;;;26.50;93.80;;;;;;4423792;32;20583;-65
2021/08/15 13:07:47;;;;;;;2.85;2.08;;;26.60;93.60;;;;;;4429553;32;20579;-65
2021/08/15 13:10:16;;;;;;;3.50;2.00;;;26.50;93.60;;;;;;4428737;32;20163;-64
2021/08/15 13:12:43;;;;;;;3.78;2.03;;;26.30;94.10;;;;;;4426140;32;20178;-65